Time;durP1;ratioP1;P1;durP2;ratioP2;P2;SDS_P1;SDS_P2;PMS_P1;PMS_P2;Temp;Humidity;BMP_temperature;BMP_pressure;BME280_temperature;BME280_humidity;BME280_pressure;Samples;Min_cycle;Max_cycle;Signal;HPM_P1;HPM_P2
2022/03/05 00:02:25;;;;;;;18.25;10.13;;;3.40;99.90;;;;;;5072498;28;20203;-45
2022/03/05 00:04:52;;;;;;;18.15;10.80;;;3.00;99.90;;;;;;5071973;28;20238;-45
2022/03/05 00:07:20;;;;;;;15.50;9.65;;;3.10;99.90;;;;;;5072571;28;20669;-46
2022/03/05 00:09:48;;;;;;;11.95;8.73;;;3.10;99.90;;;;;;5072195;28;20219;-46
2022/03/05 00:12:15;;;;;;;12.38;9.18;;;;;;;;;;5072190;28;20206;-46
2022/03/05 00:14:42;;;;;;;12.43;9.52;;;3.20;99.90;;;;;;5072144;28;20227;-45
2022/03/05 00:17:08;;;;;;;11.20;8.60;;;2.90;99.90;;;;;;5072154;28;20196;-45
2022/03/05 00:19:35;;;;;;;15.20;10.10;;;3.00;99.90;;;;;;5072142;28;20213;-45
2022/03/05 00:22:02;;;;;;;14.65;9.27;;;3.00;99.90;;;;;;5072555;28;20553;-44
2022/03/05 00:24:29;;;;;;;12.35;8.63;;;2.80;99.90;;;;;;5072186;28;20223;-47
2022/03/05 00:26:57;;;;;;;11.32;8.80;;;3.10;99.90;;;;;;5072037;28;20195;-46
2022/03/05 00:29:25;;;;;;;17.67;9.68;;;;;;;;;;5071715;28;20210;-46
2022/03/05 00:31:52;;;;;;;12.20;10.18;;;2.80;99.90;;;;;;5071785;28;20684;-45
2022/03/05 00:34:19;;;;;;;13.82;10.00;;;3.00;99.90;;;;;;5072525;28;20223;-45
2022/03/05 00:36:45;;;;;;;16.00;10.95;;;2.70;99.90;;;;;;5071872;28;20199;-46
2022/03/05 00:39:12;;;;;;;14.45;10.05;;;2.60;99.90;;;;;;5071554;28;20214;-45
2022/03/05 00:41:39;;;;;;;23.45;11.35;;;2.90;99.90;;;;;;5071569;28;20223;-45
2022/03/05 00:44:07;;;;;;;14.20;10.48;;;2.70;99.90;;;;;;5071456;28;20234;-45
2022/03/05 00:46:34;;;;;;;15.25;9.82;;;;;;;;;;5071643;28;20664;-45
2022/03/05 00:49:01;;;;;;;14.70;10.50;;;2.60;99.90;;;;;;5071302;28;20207;-45
2022/03/05 00:51:28;;;;;;;14.80;10.32;;;2.50;99.90;;;;;;5071794;28;20195;-46
2022/03/05 00:53:55;;;;;;;16.45;10.50;;;2.60;99.90;;;;;;5071855;28;20211;-45
2022/03/05 00:56:21;;;;;;;11.80;9.38;;;2.40;99.90;;;;;;5071779;28;20195;-45
2022/03/05 00:58:48;;;;;;;18.58;10.23;;;2.50;99.90;;;;;;5071307;28;20578;-45
2022/03/05 01:01:16;;;;;;;17.50;10.40;;;2.70;99.90;;;;;;5071468;28;20195;-46
2022/03/05 01:03:43;;;;;;;13.80;10.07;;;2.40;99.90;;;;;;5071286;28;20191;-45
2022/03/05 01:06:09;;;;;;;19.58;9.63;;;2.30;99.90;;;;;;5071779;28;20205;-47
2022/03/05 01:08:36;;;;;;;14.52;10.15;;;2.50;99.90;;;;;;5071339;28;20198;-44
2022/03/05 01:11:03;;;;;;;20.73;10.63;;;;;;;;;;5072004;28;20437;-45
2022/03/05 01:13:30;;;;;;;14.20;10.10;;;;;;;;;;5072234;28;20195;-45
2022/03/05 01:15:57;;;;;;;15.20;9.50;;;2.60;99.90;;;;;;5072032;28;20218;-45
2022/03/05 01:18:25;;;;;;;14.13;9.00;;;;;;;;;;5072358;28;20191;-45
2022/03/05 01:20:52;;;;;;;18.50;9.85;;;2.60;99.90;;;;;;5071681;28;20191;-45
2022/03/05 01:23:19;;;;;;;14.07;9.77;;;2.70;99.90;;;;;;5071874;28;20572;-46
2022/03/05 01:25:45;;;;;;;12.55;8.40;;;2.60;99.90;;;;;;5071966;28;20214;-45
2022/03/05 01:28:12;;;;;;;15.43;9.57;;;2.40;99.90;;;;;;5071441;28;20192;-46
2022/03/05 01:30:39;;;;;;;13.23;9.45;;;2.60;99.90;;;;;;5071016;28;20229;-46
2022/03/05 01:33:05;;;;;;;18.67;10.63;;;2.60;99.90;;;;;;5071869;28;20199;-45
2022/03/05 01:35:33;;;;;;;13.10;10.38;;;2.40;99.90;;;;;;5072172;28;20260;-45
2022/03/05 01:38:00;;;;;;;19.65;9.55;;;2.50;99.90;;;;;;5072393;28;20571;-45
2022/03/05 01:40:27;;;;;;;13.05;8.07;;;2.50;99.90;;;;;;5071589;28;20372;-45
2022/03/05 01:42:53;;;;;;;16.23;10.23;;;2.40;99.90;;;;;;5071832;28;20672;-45
2022/03/05 01:45:20;;;;;;;14.10;9.02;;;2.60;99.90;;;;;;5071349;28;20223;-45
2022/03/05 01:47:46;;;;;;;13.80;9.88;;;2.70;99.90;;;;;;5071184;28;20682;-45
2022/03/05 01:50:13;;;;;;;12.38;9.95;;;2.70;99.90;;;;;;5070822;28;20207;-45
2022/03/05 01:52:41;;;;;;;13.30;8.70;;;2.30;99.90;;;;;;5071244;28;20219;-45
2022/03/05 01:55:08;;;;;;;15.15;9.07;;;2.50;99.90;;;;;;5073061;28;20211;-45
2022/03/05 01:57:35;;;;;;;10.80;8.45;;;2.40;99.90;;;;;;5074597;28;20204;-45
2022/03/05 02:00:03;;;;;;;15.23;9.80;;;2.50;99.90;;;;;;5074317;28;20202;-45
2022/03/05 02:02:38;;;;;;;15.40;8.57;;;2.30;99.90;;;;;;5074904;28;20199;-45
2022/03/05 02:05:06;;;;;;;17.95;8.95;;;;;;;;;;5074753;28;20685;-45
2022/03/05 02:07:33;;;;;;;14.30;8.27;;;;;;;;;;5074914;28;20269;-45
2022/03/05 02:10:01;;;;;;;17.73;8.48;;;2.10;99.90;;;;;;5074327;28;20577;-46
2022/03/05 02:12:29;;;;;;;17.08;8.25;;;;;;;;;;5074494;28;20199;-45
2022/03/05 02:14:56;;;;;;;15.80;8.25;;;;;;;;;;5074604;28;20282;-46
2022/03/05 02:17:22;;;;;;;14.20;8.25;;;2.00;99.90;;;;;;5075016;28;20199;-45
2022/03/05 02:19:49;;;;;;;13.70;9.10;;;2.30;99.90;;;;;;5074137;28;20199;-45
2022/03/05 02:22:17;;;;;;;16.27;8.93;;;2.00;99.90;;;;;;5074534;28;20536;-45
2022/03/05 02:24:44;;;;;;;13.63;8.00;;;2.10;99.90;;;;;;5074341;28;20223;-45
2022/03/05 02:27:11;;;;;;;14.52;8.30;;;1.80;99.90;;;;;;5074395;28;20210;-45
2022/03/05 02:29:38;;;;;;;17.15;8.52;;;2.00;99.90;;;;;;5073783;28;20223;-45
2022/03/05 02:32:06;;;;;;;9.75;7.93;;;2.00;99.90;;;;;;5074676;28;20195;-45
2022/03/05 02:34:33;;;;;;;13.60;8.52;;;2.20;99.90;;;;;;5074147;28;20696;-45
2022/03/05 02:37:00;;;;;;;12.20;8.43;;;2.00;99.90;;;;;;5074114;28;20226;-45
2022/03/05 02:39:28;;;;;;;12.15;9.40;;;1.90;99.90;;;;;;5073767;28;20196;-45
2022/03/05 02:41:56;;;;;;;12.50;7.55;;;1.30;99.90;;;;;;5061887;28;20302;-45
2022/03/05 02:44:23;;;;;;;12.57;8.63;;;1.70;99.90;;;;;;5074013;28;20222;-45
2022/03/05 02:46:50;;;;;;;13.93;8.02;;;1.70;99.90;;;;;;5073871;28;20199;-45
2022/03/05 02:49:17;;;;;;;15.02;8.70;;;1.80;99.90;;;;;;5073582;28;20195;-45
2022/03/05 02:51:45;;;;;;;15.05;9.40;;;1.70;99.90;;;;;;5073806;28;20234;-45
2022/03/05 02:54:11;;;;;;;13.50;8.70;;;2.00;99.90;;;;;;5073956;28;20207;-45
2022/03/05 02:56:39;;;;;;;11.40;8.13;;;1.60;99.90;;;;;;5074274;28;20195;-45
2022/03/05 02:59:06;;;;;;;14.38;8.23;;;1.80;99.90;;;;;;5073873;28;20204;-45
2022/03/05 03:01:32;;;;;;;13.18;8.63;;;2.00;99.90;;;;;;5074150;28;20242;-45
2022/03/05 03:04:00;;;;;;;12.75;7.53;;;1.70;99.90;;;;;;5073406;28;20343;-45
2022/03/05 03:06:26;;;;;;;17.65;9.50;;;1.60;99.90;;;;;;5073750;28;20203;-45
2022/03/05 03:08:53;;;;;;;20.30;8.43;;;1.60;99.90;;;;;;5073919;28;20582;-45
2022/03/05 03:11:19;;;;;;;11.70;7.97;;;1.80;99.90;;;;;;5073712;28;20215;-45
2022/03/05 03:13:47;;;;;;;12.75;8.32;;;1.70;99.90;;;;;;5073534;28;20206;-45
2022/03/05 03:16:15;;;;;;;13.90;8.27;;;1.60;99.90;;;;;;5074215;28;20694;-45
2022/03/05 03:18:42;;;;;;;18.27;8.10;;;1.00;99.90;;;;;;5073045;28;20273;-45
2022/03/05 03:21:09;;;;;;;11.90;8.52;;;1.80;99.90;;;;;;5073735;28;20207;-45
2022/03/05 03:23:36;;;;;;;11.23;8.55;;;1.60;99.90;;;;;;5073420;28;20218;-47
2022/03/05 03:26:05;;;;;;;18.23;8.52;;;1.50;99.90;;;;;;5073683;28;20199;-44
2022/03/05 03:28:31;;;;;;;15.63;9.05;;;1.80;99.90;;;;;;5072919;28;20202;-47
2022/03/05 03:30:59;;;;;;;10.40;8.45;;;1.70;99.90;;;;;;5072991;28;20213;-45
2022/03/05 03:33:26;;;;;;;13.85;8.50;;;1.60;99.90;;;;;;5073466;28;20222;-45
2022/03/05 03:35:52;;;;;;;10.98;8.07;;;1.80;99.90;;;;;;5073012;28;20214;-45
2022/03/05 03:38:19;;;;;;;15.43;8.82;;;1.60;99.90;;;;;;5073246;28;20685;-46
2022/03/05 03:40:46;;;;;;;15.38;9.13;;;1.70;99.90;;;;;;5072727;28;20253;-46
2022/03/05 03:43:13;;;;;;;17.92;9.40;;;1.70;99.90;;;;;;5073079;28;20199;-46
2022/03/05 03:45:39;;;;;;;11.10;7.55;;;1.00;99.90;;;;;;5072879;28;20636;-46
2022/03/05 03:48:07;;;;;;;18.52;9.77;;;1.50;99.90;;;;;;5072884;28;20214;-45
2022/03/05 03:50:34;;;;;;;21.90;8.85;;;1.50;99.90;;;;;;5072503;28;20269;-45
2022/03/05 03:53:01;;;;;;;10.88;7.88;;;1.50;99.90;;;;;;5072970;28;20191;-45
2022/03/05 03:55:27;;;;;;;13.15;8.88;;;1.50;99.90;;;;;;5072682;28;20223;-46
2022/03/05 03:57:54;;;;;;;11.73;7.88;;;1.50;99.90;;;;;;5072829;28;20596;-46
2022/03/05 04:00:22;;;;;;;17.55;9.38;;;1.30;99.90;;;;;;5072041;28;20203;-46
2022/03/05 04:02:49;;;;;;;27.92;10.32;;;1.40;99.90;;;;;;5072488;28;20202;-46
2022/03/05 04:05:17;;;;;;;12.27;9.00;;;1.50;99.90;;;;;;5072224;28;20237;-44
2022/03/05 04:10:28;;;;;;;22.08;9.70;;;1.50;99.90;;;;;;5072262;28;20214;-45
2022/03/05 04:12:54;;;;;;;11.65;8.70;;;1.00;99.90;;;;;;5072159;28;20203;-47
2022/03/05 04:15:21;;;;;;;13.85;8.50;;;1.20;99.90;;;;;;5072245;28;20215;-45
2022/03/05 04:17:48;;;;;;;14.73;9.38;;;1.20;99.90;;;;;;5072362;28;20630;-46
2022/03/05 04:20:16;;;;;;;13.70;9.25;;;1.50;99.90;;;;;;5071100;28;20191;-45
2022/03/05 04:22:43;;;;;;;14.13;8.75;;;1.70;99.90;;;;;;5072163;28;20276;-46
2022/03/05 04:25:10;;;;;;;17.83;9.52;;;1.40;99.90;;;;;;5072090;28;20729;-45
2022/03/05 04:27:37;;;;;;;14.75;8.35;;;1.30;99.90;;;;;;5072066;28;20202;-45
2022/03/05 04:30:05;;;;;;;16.58;9.85;;;0.90;99.90;;;;;;5071837;28;20191;-46
2022/03/05 04:32:33;;;;;;;15.38;10.00;;;1.20;99.90;;;;;;5072745;28;20210;-45
2022/03/05 04:34:59;;;;;;;14.88;8.70;;;1.20;99.90;;;;;;5072042;28;20214;-45
2022/03/05 04:37:27;;;;;;;21.08;9.52;;;1.20;99.90;;;;;;5072059;28;20206;-45
2022/03/05 04:39:54;;;;;;;20.70;9.73;;;1.00;99.90;;;;;;5071447;28;20206;-46
2022/03/05 04:42:20;;;;;;;19.75;9.85;;;0.80;99.90;;;;;;5067426;28;20230;-45
2022/03/05 04:44:47;;;;;;;16.33;9.57;;;1.30;99.90;;;;;;5052055;28;20221;-45
2022/03/05 04:47:14;;;;;;;18.45;8.88;;;1.30;99.90;;;;;;5052034;28;20571;-46
2022/03/05 04:49:40;;;;;;;14.40;9.23;;;1.30;99.90;;;;;;5051642;28;20200;-45
2022/03/05 04:52:07;;;;;;;21.75;10.60;;;1.20;99.90;;;;;;5051807;28;20265;-46
2022/03/05 04:54:35;;;;;;;17.63;9.90;;;1.40;99.90;;;;;;5051806;28;20708;-45
2022/03/05 04:57:03;;;;;;;12.88;8.52;;;1.30;99.90;;;;;;5052082;28;20512;-46
2022/03/05 04:59:30;;;;;;;25.52;10.48;;;1.40;99.90;;;;;;5051369;28;20197;-46
2022/03/05 05:01:57;;;;;;;15.93;9.90;;;1.10;99.90;;;;;;5051744;28;20198;-45
2022/03/05 05:04:24;;;;;;;18.63;8.65;;;1.40;99.90;;;;;;5050692;28;20324;-45
2022/03/05 05:06:50;;;;;;;15.13;8.98;;;1.40;99.90;;;;;;5051798;28;20207;-45
2022/03/05 05:09:17;;;;;;;14.85;8.90;;;1.00;99.90;;;;;;5051354;28;20547;-45
2022/03/05 05:11:45;;;;;;;15.35;8.88;;;0.60;99.90;;;;;;5051080;28;20223;-45
2022/03/05 05:14:11;;;;;;;14.18;9.15;;;1.30;99.90;;;;;;5052168;28;20212;-45
2022/03/05 05:16:38;;;;;;;17.42;9.93;;;1.20;99.90;;;;;;5052254;28;20203;-44
2022/03/05 05:21:49;;;;;;;15.07;9.25;;;1.10;99.90;;;;;;5052096;28;20184;-44
2022/03/05 05:24:16;;;;;;;14.32;9.13;;;0.90;99.90;;;;;;5052333;28;20229;-44
2022/03/05 05:26:44;;;;;;;15.30;9.45;;;1.10;99.90;;;;;;5053381;28;20205;-44
2022/03/05 05:29:13;;;;;;;15.75;8.65;;;1.10;99.90;;;;;;5051524;28;20206;-44
2022/03/05 05:31:39;;;;;;;14.02;9.60;;;1.00;99.90;;;;;;5053785;28;20212;-44
2022/03/05 05:34:06;;;;;;;17.13;9.82;;;1.30;99.90;;;;;;5056678;28;20226;-44
2022/03/05 05:36:33;;;;;;;14.00;9.52;;;0.90;99.90;;;;;;5056991;28;20196;-44
2022/03/05 05:38:59;;;;;;;14.88;9.35;;;1.00;99.90;;;;;;5057348;28;20204;-44
2022/03/05 05:41:26;;;;;;;14.32;8.90;;;;;;;;;;5072330;28;20191;-44
2022/03/05 05:43:54;;;;;;;13.57;9.15;;;0.80;99.90;;;;;;5077444;28;20199;-44
2022/03/05 05:46:20;;;;;;;18.52;9.38;;;1.00;99.90;;;;;;5077755;28;20213;-44
2022/03/05 05:48:47;;;;;;;21.30;9.48;;;1.00;99.90;;;;;;5075732;28;20203;-44
2022/03/05 05:51:13;;;;;;;14.10;9.27;;;0.90;99.90;;;;;;5075205;28;20234;-44
2022/03/05 05:53:40;;;;;;;16.20;9.63;;;1.20;99.90;;;;;;5074967;28;20207;-43
2022/03/05 05:56:07;;;;;;;16.20;9.95;;;0.90;99.90;;;;;;5075236;28;20249;-44
2022/03/05 05:58:33;;;;;;;14.80;9.60;;;1.00;99.90;;;;;;5074760;28;20245;-43
2022/03/05 06:01:01;;;;;;;17.05;8.93;;;0.90;99.90;;;;;;5075073;28;20188;-43
2022/03/05 06:03:28;;;;;;;14.23;10.18;;;0.90;99.90;;;;;;5074886;28;20274;-44
2022/03/05 06:05:57;;;;;;;15.02;9.55;;;1.10;99.90;;;;;;5074885;28;20589;-45
2022/03/05 06:08:23;;;;;;;18.08;10.45;;;1.00;99.90;;;;;;5074604;28;20206;-43
2022/03/05 06:10:51;;;;;;;15.60;10.63;;;1.10;99.90;;;;;;5074461;28;20222;-44
2022/03/05 06:13:18;;;;;;;14.13;8.60;;;1.10;99.90;;;;;;5074536;28;20198;-46
2022/03/05 06:15:44;;;;;;;16.80;9.43;;;1.10;99.90;;;;;;5074894;28;20221;-45
2022/03/05 06:18:13;;;;;;;15.38;9.38;;;1.10;99.90;;;;;;5075174;28;20191;-44
2022/03/05 06:20:39;;;;;;;14.55;8.77;;;1.00;99.90;;;;;;5076832;28;20224;-44
2022/03/05 06:23:06;;;;;;;14.45;9.82;;;0.90;99.90;;;;;;5075299;28;20587;-44
2022/03/05 06:25:33;;;;;;;16.45;8.93;;;1.00;99.90;;;;;;5074688;28;20238;-44
2022/03/05 06:28:01;;;;;;;16.13;9.00;;;1.00;99.90;;;;;;5074767;28;20199;-46
2022/03/05 06:30:27;;;;;;;13.73;9.48;;;1.00;99.90;;;;;;5074708;28;20563;-44
2022/03/05 06:32:54;;;;;;;15.45;8.93;;;1.40;99.90;;;;;;5074846;28;20219;-44
2022/03/05 06:35:22;;;;;;;16.80;11.93;;;1.20;99.90;;;;;;5075097;28;20706;-44
2022/03/05 06:37:48;;;;;;;15.23;9.05;;;1.50;99.90;;;;;;5075481;28;20195;-44
2022/03/05 06:40:15;;;;;;;17.02;11.88;;;1.60;99.90;;;;;;5075933;28;20214;-44
2022/03/05 06:42:42;;;;;;;13.75;10.27;;;1.30;99.90;;;;;;5074909;28;20203;-44
2022/03/05 06:45:10;;;;;;;17.10;9.85;;;1.70;99.90;;;;;;5076068;28;20253;-44
2022/03/05 06:47:37;;;;;;;15.80;10.20;;;;;;;;;;5075521;28;20278;-44
2022/03/05 06:50:05;;;;;;;15.52;8.80;;;1.50;99.90;;;;;;5075556;28;20229;-45
2022/03/05 06:52:33;;;;;;;14.43;10.02;;;1.50;99.90;;;;;;5074487;28;20211;-44
2022/03/05 06:55:00;;;;;;;20.02;9.63;;;1.60;99.90;;;;;;5074537;28;20215;-45
2022/03/05 06:57:27;;;;;;;13.10;9.00;;;1.60;99.90;;;;;;5073848;28;20209;-45
2022/03/05 06:59:53;;;;;;;15.10;10.32;;;1.50;99.90;;;;;;5073476;28;20223;-45
2022/03/05 07:02:21;;;;;;;13.65;8.70;;;1.60;99.90;;;;;;5073918;28;20208;-45
2022/03/05 07:04:48;;;;;;;15.25;9.93;;;1.70;99.90;;;;;;5073825;28;20237;-45
2022/03/05 07:07:14;;;;;;;14.68;9.70;;;1.80;99.90;;;;;;5073718;28;20195;-45
2022/03/05 07:09:42;;;;;;;16.70;10.25;;;1.80;99.90;;;;;;5073266;28;20207;-45
2022/03/05 07:12:10;;;;;;;20.55;9.50;;;1.60;99.90;;;;;;5074254;28;20276;-45
2022/03/05 07:14:37;;;;;;;15.70;10.63;;;1.50;99.90;;;;;;5074821;28;20249;-45
2022/03/05 07:17:04;;;;;;;18.17;10.05;;;1.80;99.90;;;;;;5073602;28;20191;-45
2022/03/05 07:19:30;;;;;;;16.17;9.60;;;1.70;99.90;;;;;;5073290;28;20256;-45
2022/03/05 07:21:57;;;;;;;14.25;9.23;;;1.80;99.90;;;;;;5073410;28;20232;-45
2022/03/05 07:24:24;;;;;;;12.40;10.23;;;1.80;99.90;;;;;;5072962;28;20235;-45
2022/03/05 07:26:51;;;;;;;16.90;10.45;;;1.90;99.90;;;;;;5073686;28;20222;-45
2022/03/05 07:29:18;;;;;;;23.63;11.18;;;1.80;99.90;;;;;;5072927;28;20191;-45
2022/03/05 07:31:45;;;;;;;15.90;11.05;;;1.70;99.90;;;;;;5073288;28;20219;-45
2022/03/05 07:34:11;;;;;;;13.77;10.27;;;1.60;99.90;;;;;;5073131;28;20557;-44
2022/03/05 07:36:39;;;;;;;15.30;10.13;;;1.60;99.90;;;;;;5073072;28;20288;-46
2022/03/05 07:39:07;;;;;;;12.88;9.50;;;1.90;99.90;;;;;;5072679;28;20707;-44
2022/03/05 07:41:34;;;;;;;13.38;10.02;;;1.70;99.90;;;;;;5073022;28;20243;-44
2022/03/05 07:44:02;;;;;;;15.90;9.98;;;2.10;99.90;;;;;;5072752;28;20242;-44
2022/03/05 07:46:28;;;;;;;20.52;10.93;;;2.00;99.90;;;;;;5073000;28;20200;-44
2022/03/05 07:48:55;;;;;;;12.90;9.38;;;2.00;99.90;;;;;;5072476;28;20565;-46
2022/03/05 07:51:22;;;;;;;17.20;10.55;;;;;;;;;;5072673;28;20199;-45
2022/03/05 07:53:49;;;;;;;15.38;9.88;;;2.10;99.90;;;;;;5072378;28;20191;-44
2022/03/05 07:56:15;;;;;;;11.60;9.27;;;2.00;99.90;;;;;;5072746;28;20575;-45
2022/03/05 07:58:42;;;;;;;20.48;12.02;;;2.10;99.90;;;;;;5072205;28;20655;-45
2022/03/05 08:01:10;;;;;;;14.52;10.82;;;2.10;99.90;;;;;;5072776;28;20199;-44
2022/03/05 08:03:36;;;;;;;12.05;9.20;;;2.10;99.90;;;;;;5072180;28;20607;-45
2022/03/05 08:06:03;;;;;;;14.73;9.55;;;2.10;99.90;;;;;;5070994;28;20790;-44
2022/03/05 08:08:30;;;;;;;12.80;9.30;;;2.20;99.90;;;;;;5072382;28;20187;-45
2022/03/05 08:10:57;;;;;;;15.77;9.68;;;2.30;99.90;;;;;;5071947;28;20656;-45
2022/03/05 08:13:23;;;;;;;16.33;11.15;;;2.40;99.90;;;;;;5071923;28;20281;-45
2022/03/05 08:15:51;;;;;;;14.27;10.40;;;2.60;99.90;;;;;;5072500;28;20631;-43
2022/03/05 08:18:19;;;;;;;14.52;9.45;;;2.60;99.90;;;;;;5072228;28;20445;-46
2022/03/05 08:20:46;;;;;;;14.15;9.70;;;2.50;99.90;;;;;;5071779;28;20620;-44
2022/03/05 08:23:13;;;;;;;14.95;11.15;;;2.60;99.90;;;;;;5072180;28;20195;-44
2022/03/05 08:25:39;;;;;;;16.27;9.65;;;2.30;99.90;;;;;;5072263;28;20215;-44
2022/03/05 08:28:07;;;;;;;12.18;8.98;;;2.60;99.90;;;;;;5071994;28;20226;-44
2022/03/05 08:30:34;;;;;;;14.45;9.50;;;2.50;99.90;;;;;;5071614;28;20191;-44
2022/03/05 08:33:01;;;;;;;13.38;10.05;;;2.70;99.90;;;;;;5072255;28;20215;-44
2022/03/05 08:35:29;;;;;;;16.65;10.73;;;2.80;99.90;;;;;;5072054;28;20259;-44
2022/03/05 08:37:56;;;;;;;12.50;9.63;;;2.60;99.90;;;;;;5072830;28;20278;-45
2022/03/05 08:40:22;;;;;;;23.70;10.30;;;2.70;99.90;;;;;;5072016;28;20661;-45
2022/03/05 08:42:49;;;;;;;14.50;9.70;;;2.90;99.90;;;;;;5072537;28;20588;-45
2022/03/05 08:45:16;;;;;;;12.45;11.07;;;2.60;99.90;;;;;;5071832;28;20238;-45
2022/03/05 08:47:44;;;;;;;18.45;10.65;;;2.20;99.90;;;;;;5057523;28;20199;-44
2022/03/05 08:50:11;;;;;;;14.25;9.38;;;2.60;99.90;;;;;;5051708;28;20196;-45
2022/03/05 08:52:39;;;;;;;13.80;9.85;;;2.70;99.90;;;;;;5052193;28;20604;-44
2022/03/05 08:55:07;;;;;;;17.98;11.25;;;3.10;99.90;;;;;;5052062;28;20223;-45
2022/03/05 08:57:34;;;;;;;13.48;9.95;;;2.80;99.90;;;;;;5052315;28;20200;-45
2022/03/05 09:00:01;;;;;;;15.93;9.63;;;3.00;99.90;;;;;;5051070;28;20196;-45
2022/03/05 09:02:27;;;;;;;15.65;10.02;;;3.10;99.90;;;;;;5051778;28;20200;-45
2022/03/05 09:04:54;;;;;;;18.15;10.35;;;2.90;99.90;;;;;;5051138;28;20224;-45
2022/03/05 09:07:21;;;;;;;12.18;9.82;;;2.80;99.90;;;;;;5051073;28;20687;-45
2022/03/05 09:09:49;;;;;;;16.98;9.30;;;3.00;99.90;;;;;;5050771;28;20565;-45
2022/03/05 09:12:15;;;;;;;13.52;9.18;;;3.20;99.90;;;;;;5051225;28;20657;-45
2022/03/05 09:14:42;;;;;;;18.17;10.35;;;3.20;99.90;;;;;;5051317;28;20303;-44
2022/03/05 09:17:08;;;;;;;11.40;9.07;;;3.30;99.90;;;;;;5051505;28;20306;-44
2022/03/05 09:19:35;;;;;;;17.25;10.13;;;3.20;99.90;;;;;;5052416;28;20200;-45
2022/03/05 09:22:02;;;;;;;15.93;10.48;;;3.10;99.90;;;;;;5051357;28;20196;-45
2022/03/05 09:24:28;;;;;;;20.50;10.82;;;3.20;99.90;;;;;;5051118;28;20223;-45
2022/03/05 09:26:56;;;;;;;13.05;9.70;;;3.50;99.90;;;;;;5051477;28;20196;-45
2022/03/05 09:29:23;;;;;;;15.40;9.82;;;3.40;99.90;;;;;;5050835;28;20200;-45
2022/03/05 09:31:50;;;;;;;14.75;9.27;;;3.60;99.90;;;;;;5051268;28;20204;-44
2022/03/05 09:34:17;;;;;;;14.15;9.95;;;3.60;99.90;;;;;;5051452;28;20243;-46
2022/03/05 09:36:44;;;;;;;11.73;9.18;;;3.50;99.90;;;;;;5051106;28;20669;-46
2022/03/05 09:39:11;;;;;;;11.70;9.07;;;;;;;;;;5050664;28;20348;-43
2022/03/05 09:41:39;;;;;;;16.83;9.80;;;3.50;99.90;;;;;;5068113;28;20206;-46
2022/03/05 09:44:07;;;;;;;14.75;9.57;;;3.70;99.90;;;;;;5070982;28;20219;-47
2022/03/05 09:46:35;;;;;;;15.15;10.40;;;;;;;;;;5071018;28;20676;-46
2022/03/05 09:49:03;;;;;;;13.68;10.18;;;3.50;99.90;;;;;;5070728;28;20587;-46
2022/03/05 09:51:30;;;;;;;16.45;10.07;;;;;;;;;;5069457;28;20202;-44
2022/03/05 09:53:57;;;;;;;11.75;9.02;;;3.70;99.90;;;;;;5070889;28;20242;-44
2022/03/05 09:56:24;;;;;;;14.77;11.10;;;3.90;99.90;;;;;;5071107;28;20211;-45
2022/03/05 09:58:52;;;;;;;14.57;9.88;;;3.90;99.90;;;;;;5070648;28;20581;-46
2022/03/05 10:01:20;;;;;;;15.88;9.88;;;3.90;99.90;;;;;;5070751;28;20597;-46
2022/03/05 10:03:51;;;;;;;15.68;11.00;;;3.70;99.90;;;;;;5070511;28;20703;-45
2022/03/05 10:06:19;;;;;;;16.50;9.30;;;4.00;99.90;;;;;;5069452;28;20207;-44
2022/03/05 10:08:46;;;;;;;13.38;9.70;;;3.80;99.90;;;;;;5070245;28;20561;-45
2022/03/05 10:11:14;;;;;;;11.23;8.50;;;3.80;99.90;;;;;;5070611;28;20195;-45
2022/03/05 10:13:42;;;;;;;12.35;9.75;;;4.10;99.90;;;;;;5070711;28;20703;-45
2022/03/05 10:16:25;;;;;;;9.48;8.25;;;4.00;99.90;;;;;;5070360;28;20641;-45
2022/03/05 10:18:53;;;;;;;14.32;9.68;;;4.00;99.90;;;;;;5072658;28;20191;-45
2022/03/05 10:21:28;;;;;;;13.23;8.65;;;4.00;99.90;;;;;;5074185;28;20670;-46
2022/03/05 10:24:05;;;;;;;11.60;9.00;;;4.10;99.90;;;;;;5074551;28;20232;-45
2022/03/05 10:26:50;;;;;;;9.70;7.65;;;4.20;99.90;;;;;;5074325;28;20195;-47
2022/03/05 10:29:21;;;;;;;14.02;8.52;;;4.40;99.90;;;;;;5073717;28;20612;-46
2022/03/05 10:32:01;;;;;;;13.50;8.68;;;4.50;99.90;;;;;;5074001;28;20718;-45
2022/03/05 10:34:28;;;;;;;10.52;8.68;;;4.40;99.90;;;;;;5074258;28;20702;-45
2022/03/05 10:37:00;;;;;;;18.73;10.70;;;4.50;99.90;;;;;;5073969;28;20684;-45
2022/03/05 10:39:27;;;;;;;13.50;8.95;;;;;;;;;;5073547;28;20203;-45
2022/03/05 10:41:55;;;;;;;12.45;10.23;;;4.60;99.90;;;;;;5073576;28;20606;-45
2022/03/05 10:44:23;;;;;;;14.32;9.68;;;4.40;99.90;;;;;;5073909;28;20257;-46
2022/03/05 10:46:57;;;;;;;11.20;9.05;;;4.70;99.90;;;;;;5073579;28;20247;-46
2022/03/05 10:49:25;;;;;;;10.77;9.60;;;;;;;;;;5073790;28;20206;-47
2022/03/05 10:51:52;;;;;;;12.95;9.30;;;;;;;;;;5073238;28;20204;-47
2022/03/05 10:54:29;;;;;;;11.07;8.63;;;4.90;99.90;;;;;;5073957;28;20227;-44
2022/03/05 10:56:57;;;;;;;14.10;9.20;;;;;;;;;;5074078;28;20668;-46
2022/03/05 10:59:23;;;;;;;11.57;8.38;;;5.20;99.90;;;;;;5073350;28;20724;-45
2022/03/05 11:01:50;;;;;;;17.30;9.10;;;5.20;99.90;;;;;;5073415;28;20218;-46
2022/03/05 11:04:18;;;;;;;11.20;8.40;;;5.30;99.90;;;;;;5073885;28;20558;-42
2022/03/05 11:06:45;;;;;;;11.07;9.27;;;;;;;;;;5073151;28;20284;-43
2022/03/05 11:09:13;;;;;;;11.43;8.57;;;5.30;99.90;;;;;;5073989;28;20542;-43
2022/03/05 11:11:41;;;;;;;13.23;9.23;;;;;;;;;;5073511;28;20559;-44
2022/03/05 11:14:13;;;;;;;9.80;7.85;;;5.60;99.90;;;;;;5072911;28;20231;-46
2022/03/05 11:16:39;;;;;;;10.07;7.50;;;5.60;99.90;;;;;;5073333;28;20656;-43
2022/03/05 11:19:06;;;;;;;12.80;8.10;;;5.50;99.80;;;;;;5072665;28;20206;-43
2022/03/05 11:21:34;;;;;;;10.35;7.47;;;5.30;99.60;;;;;;5073238;28;20468;-44
2022/03/05 11:24:02;;;;;;;10.82;8.23;;;5.40;99.50;;;;;;5073273;28;20245;-44
2022/03/05 11:26:31;;;;;;;10.77;7.60;;;;;;;;;;5073161;28;20274;-43
2022/03/05 11:28:58;;;;;;;11.57;8.70;;;5.30;98.80;;;;;;5072719;28;20246;-45
2022/03/05 11:31:25;;;;;;;10.93;7.70;;;;;;;;;;5072962;28;20199;-47
2022/03/05 11:33:53;;;;;;;11.70;7.53;;;;;;;;;;5072300;28;20903;-43
2022/03/05 11:36:32;;;;;;;10.33;7.57;;;5.30;98.80;;;;;;5072824;28;20798;-43
2022/03/05 11:39:15;;;;;;;10.52;7.63;;;5.60;99.00;;;;;;5073058;28;20870;-44
2022/03/05 11:41:56;;;;;;;11.73;7.95;;;;;;;;;;5072722;28;20207;-44
2022/03/05 11:44:24;;;;;;;9.20;7.17;;;;;;;;;;5072419;28;20302;-43
2022/03/05 11:47:24;;;;;;;12.50;7.45;;;5.60;98.30;;;;;;5072531;28;20495;-45
2022/03/05 11:50:16;;;;;;;8.77;6.80;;;5.70;98.20;;;;;;5071911;28;20191;-44
2022/03/05 11:53:06;;;;;;;7.57;6.20;;;5.90;98.00;;;;;;5072415;28;20442;-44
2022/03/05 11:55:41;;;;;;;11.80;7.20;;;6.20;97.80;;;;;;5072558;28;20450;-43
2022/03/05 11:58:27;;;;;;;7.10;6.03;;;6.20;97.60;;;;;;5072451;28;20440;-43
2022/03/05 12:00:55;;;;;;;9.93;6.30;;;6.10;97.00;;;;;;5072189;28;20763;-43
2022/03/05 12:03:42;;;;;;;11.80;6.60;;;6.00;97.00;;;;;;5072221;28;20427;-45
2022/03/05 12:06:11;;;;;;;8.10;6.40;;;6.10;97.20;;;;;;5072564;28;20898;-43
2022/03/05 12:08:50;;;;;;;13.03;6.03;;;5.80;96.80;;;;;;5071963;28;20727;-44
2022/03/05 12:11:19;;;;;;;7.70;6.60;;;;;;;;;;5072298;28;20929;-44
2022/03/05 12:13:47;;;;;;;11.00;5.90;;;5.80;96.60;;;;;;5071818;28;20470;-45
2022/03/05 12:16:15;;;;;;;10.87;5.97;;;6.00;96.40;;;;;;5071408;28;20433;-47
2022/03/05 12:18:42;;;;;;;7.43;6.10;;;5.50;96.50;;;;;;5071737;28;20470;-44
2022/03/05 12:21:09;;;;;;;9.60;5.93;;;5.90;96.20;;;;;;5071604;28;20441;-43
2022/03/05 12:23:36;;;;;;;9.17;6.07;;;;;;;;;;5071725;28;20430;-48
2022/03/05 12:26:04;;;;;;;8.93;5.97;;;;;;;;;;5072070;28;20427;-42
2022/03/05 12:28:40;;;;;;;6.67;5.83;;;6.00;95.40;;;;;;5071201;28;20471;-42
2022/03/05 12:31:13;;;;;;;7.03;6.07;;;6.10;95.40;;;;;;5071403;28;20554;-43
2022/03/05 12:33:41;;;;;;;10.63;5.63;;;;;;;;;;5071426;28;20448;-43
2022/03/05 12:36:14;;;;;;;6.83;5.57;;;6.30;94.50;;;;;;5071841;28;20481;-45
2022/03/05 12:38:41;;;;;;;11.80;6.00;;;6.40;94.90;;;;;;5070946;28;20431;-42
2022/03/05 12:41:08;;;;;;;7.57;5.93;;;6.80;94.90;;;;;;5070890;28;20507;-42
2022/03/05 12:43:36;;;;;;;7.53;5.53;;;6.50;94.40;;;;;;5071448;28;20761;-45
2022/03/05 12:46:02;;;;;;;8.37;5.87;;;6.60;94.20;;;;;;5071283;28;20796;-43
2022/03/05 12:48:32;;;;;;;5.20;4.60;;;;;;;;;;5071227;28;20485;-43
2022/03/05 12:50:59;;;;;;;5.37;4.57;;;6.40;93.20;;;;;;5071255;28;20458;-43
2022/03/05 12:53:26;;;;;;;5.40;4.00;;;;;;;;;;5070729;28;20575;-43
2022/03/05 12:55:56;;;;;;;4.83;3.77;;;;;;;;;;5071301;28;20449;-43
2022/03/05 12:58:24;;;;;;;6.13;4.30;;;6.40;92.50;;;;;;5071134;28;20798;-45
2022/03/05 13:00:54;;;;;;;4.80;3.77;;;6.30;92.10;;;;;;5071474;28;20443;-43
2022/03/05 13:03:22;;;;;;;5.40;4.30;;;6.00;91.80;;;;;;5071195;28;20480;-43
2022/03/05 13:05:50;;;;;;;7.20;4.50;;;6.20;92.10;;;;;;5071532;28;20936;-43